sensor_id;sensor_type;location;lat;lon;timestamp;P1;durP1;ratioP1;P2;durP2;ratioP2
15899;SDS011;8048;50.644;6.184;2022-08-19T00:01:25;5.67;;;5.20;;
15899;SDS011;8048;50.644;6.184;2022-08-19T00:03:54;6.03;;;5.53;;
15899;SDS011;8048;50.644;6.184;2022-08-19T00:06:24;6.83;;;6.33;;
15899;SDS011;8048;50.644;6.184;2022-08-19T00:08:50;6.97;;;6.37;;
15899;SDS011;8048;50.644;6.184;2022-08-19T00:11:16;6.50;;;6.03;;
15899;SDS011;8048;50.644;6.184;2022-08-19T00:13:42;6.27;;;5.67;;
15899;SDS011;8048;50.644;6.184;2022-08-19T00:16:08;6.97;;;6.47;;
15899;SDS011;8048;50.644;6.184;2022-08-19T00:18:34;5.90;;;5.40;;
15899;SDS011;8048;50.644;6.184;2022-08-19T00:20:59;7.00;;;6.30;;
15899;SDS011;8048;50.644;6.184;2022-08-19T00:23:26;6.10;;;5.50;;
15899;SDS011;8048;50.644;6.184;2022-08-19T00:25:52;5.67;;;5.27;;
15899;SDS011;8048;50.644;6.184;2022-08-19T00:28:18;5.07;;;4.77;;
15899;SDS011;8048;50.644;6.184;2022-08-19T00:30:45;7.00;;;6.47;;
15899;SDS011;8048;50.644;6.184;2022-08-19T00:33:11;5.33;;;4.93;;
15899;SDS011;8048;50.644;6.184;2022-08-19T00:35:36;7.30;;;6.67;;
15899;SDS011;8048;50.644;6.184;2022-08-19T00:38:03;6.90;;;6.30;;
15899;SDS011;8048;50.644;6.184;2022-08-19T00:40:31;6.13;;;5.63;;
15899;SDS011;8048;50.644;6.184;2022-08-19T00:42:56;5.63;;;5.23;;
15899;SDS011;8048;50.644;6.184;2022-08-19T00:45:25;6.63;;;6.00;;
15899;SDS011;8048;50.644;6.184;2022-08-19T00:47:53;8.60;;;6.10;;
15899;SDS011;8048;50.644;6.184;2022-08-19T00:50:18;6.17;;;5.60;;
15899;SDS011;8048;50.644;6.184;2022-08-19T00:52:46;6.17;;;5.57;;
15899;SDS011;8048;50.644;6.184;2022-08-19T00:55:16;6.30;;;5.80;;
15899;SDS011;8048;50.644;6.184;2022-08-19T00:57:47;5.60;;;5.20;;
15899;SDS011;8048;50.644;6.184;2022-08-19T01:00:17;5.40;;;5.10;;
15899;SDS011;8048;50.644;6.184;2022-08-19T01:02:44;6.07;;;5.53;;
15899;SDS011;8048;50.644;6.184;2022-08-19T01:05:14;5.47;;;5.07;;
15899;SDS011;8048;50.644;6.184;2022-08-19T01:07:43;6.73;;;6.33;;
15899;SDS011;8048;50.644;6.184;2022-08-19T01:10:13;5.87;;;5.37;;
15899;SDS011;8048;50.644;6.184;2022-08-19T01:12:43;6.50;;;6.00;;
15899;SDS011;8048;50.644;6.184;2022-08-19T01:15:10;5.23;;;4.80;;
15899;SDS011;8048;50.644;6.184;2022-08-19T01:17:39;6.07;;;5.57;;
15899;SDS011;8048;50.644;6.184;2022-08-19T01:20:06;6.43;;;5.93;;
15899;SDS011;8048;50.644;6.184;2022-08-19T01:22:43;7.27;;;6.60;;
15899;SDS011;8048;50.644;6.184;2022-08-19T01:25:12;5.23;;;4.83;;
15899;SDS011;8048;50.644;6.184;2022-08-19T01:27:44;5.10;;;4.73;;
15899;SDS011;8048;50.644;6.184;2022-08-19T01:30:17;6.13;;;5.63;;
15899;SDS011;8048;50.644;6.184;2022-08-19T01:32:53;6.43;;;5.93;;
15899;SDS011;8048;50.644;6.184;2022-08-19T01:35:20;5.50;;;5.00;;
15899;SDS011;8048;50.644;6.184;2022-08-19T01:37:55;5.50;;;5.00;;
15899;SDS011;8048;50.644;6.184;2022-08-19T01:40:24;5.50;;;5.07;;
15899;SDS011;8048;50.644;6.184;2022-08-19T01:42:52;6.50;;;6.00;;
15899;SDS011;8048;50.644;6.184;2022-08-19T01:45:19;6.17;;;5.70;;
15899;SDS011;8048;50.644;6.184;2022-08-19T01:47:46;5.20;;;4.80;;
15899;SDS011;8048;50.644;6.184;2022-08-19T01:50:12;5.70;;;5.20;;
15899;SDS011;8048;50.644;6.184;2022-08-19T01:52:39;7.70;;;7.00;;
15899;SDS011;8048;50.644;6.184;2022-08-19T01:55:07;6.27;;;5.77;;
15899;SDS011;8048;50.644;6.184;2022-08-19T01:57:34;9.60;;;8.67;;
15899;SDS011;8048;50.644;6.184;2022-08-19T02:00:00;6.53;;;5.93;;
15899;SDS011;8048;50.644;6.184;2022-08-19T02:02:30;6.00;;;5.50;;
15899;SDS011;8048;50.644;6.184;2022-08-19T02:04:56;6.90;;;6.30;;
15899;SDS011;8048;50.644;6.184;2022-08-19T02:07:22;6.90;;;6.30;;
15899;SDS011;8048;50.644;6.184;2022-08-19T02:09:47;6.33;;;5.83;;
15899;SDS011;8048;50.644;6.184;2022-08-19T02:12:13;7.77;;;7.07;;
15899;SDS011;8048;50.644;6.184;2022-08-19T02:14:41;8.07;;;7.37;;
15899;SDS011;8048;50.644;6.184;2022-08-19T02:17:07;7.43;;;6.87;;
15899;SDS011;8048;50.644;6.184;2022-08-19T02:19:33;6.60;;;6.10;;
15899;SDS011;8048;50.644;6.184;2022-08-19T02:21:59;7.73;;;7.13;;
15899;SDS011;8048;50.644;6.184;2022-08-19T02:24:25;8.53;;;7.80;;
15899;SDS011;8048;50.644;6.184;2022-08-19T02:26:51;7.80;;;7.20;;
15899;SDS011;8048;50.644;6.184;2022-08-19T02:29:17;7.07;;;6.43;;
15899;SDS011;8048;50.644;6.184;2022-08-19T02:31:43;6.60;;;6.10;;
15899;SDS011;8048;50.644;6.184;2022-08-19T02:34:09;8.50;;;7.70;;
15899;SDS011;8048;50.644;6.184;2022-08-19T02:36:34;8.63;;;7.87;;
15899;SDS011;8048;50.644;6.184;2022-08-19T02:39:00;9.10;;;8.27;;
15899;SDS011;8048;50.644;6.184;2022-08-19T02:41:27;8.00;;;7.30;;
15899;SDS011;8048;50.644;6.184;2022-08-19T02:43:56;8.57;;;7.77;;
15899;SDS011;8048;50.644;6.184;2022-08-19T02:46:24;7.73;;;7.00;;
15899;SDS011;8048;50.644;6.184;2022-08-19T02:48:53;8.30;;;7.60;;
15899;SDS011;8048;50.644;6.184;2022-08-19T02:51:25;7.57;;;6.83;;
15899;SDS011;8048;50.644;6.184;2022-08-19T02:53:52;7.97;;;7.27;;
15899;SDS011;8048;50.644;6.184;2022-08-19T02:56:18;8.90;;;8.10;;
15899;SDS011;8048;50.644;6.184;2022-08-19T02:58:45;8.07;;;7.47;;
15899;SDS011;8048;50.644;6.184;2022-08-19T03:01:11;8.53;;;7.73;;
15899;SDS011;8048;50.644;6.184;2022-08-19T03:03:44;8.37;;;7.60;;
15899;SDS011;8048;50.644;6.184;2022-08-19T03:06:13;9.00;;;8.17;;
15899;SDS011;8048;50.644;6.184;2022-08-19T03:08:41;8.87;;;7.97;;
15899;SDS011;8048;50.644;6.184;2022-08-19T03:11:19;8.57;;;7.90;;
15899;SDS011;8048;50.644;6.184;2022-08-19T03:13:47;6.87;;;6.33;;
15899;SDS011;8048;50.644;6.184;2022-08-19T03:16:16;7.80;;;7.10;;
15899;SDS011;8048;50.644;6.184;2022-08-19T03:18:43;7.10;;;6.50;;
15899;SDS011;8048;50.644;6.184;2022-08-19T03:21:08;10.40;;;9.70;;
15899;SDS011;8048;50.644;6.184;2022-08-19T03:23:39;6.70;;;6.10;;
15899;SDS011;8048;50.644;6.184;2022-08-19T03:26:05;6.73;;;6.13;;
15899;SDS011;8048;50.644;6.184;2022-08-19T03:28:31;8.40;;;7.03;;
15899;SDS011;8048;50.644;6.184;2022-08-19T03:30:58;6.83;;;6.23;;
15899;SDS011;8048;50.644;6.184;2022-08-19T03:33:26;8.63;;;7.83;;
15899;SDS011;8048;50.644;6.184;2022-08-19T03:38:50;8.10;;;6.97;;
15899;SDS011;8048;50.644;6.184;2022-08-19T03:41:20;7.97;;;7.27;;
15899;SDS011;8048;50.644;6.184;2022-08-19T03:43:47;8.60;;;7.80;;
15899;SDS011;8048;50.644;6.184;2022-08-19T03:46:15;9.27;;;8.47;;
15899;SDS011;8048;50.644;6.184;2022-08-19T03:48:45;9.80;;;8.90;;
15899;SDS011;8048;50.644;6.184;2022-08-19T03:51:16;9.47;;;8.67;;
15899;SDS011;8048;50.644;6.184;2022-08-19T03:53:45;8.43;;;7.67;;
15899;SDS011;8048;50.644;6.184;2022-08-19T03:56:11;9.70;;;8.87;;
15899;SDS011;8048;50.644;6.184;2022-08-19T03:58:38;10.03;;;8.97;;
15899;SDS011;8048;50.644;6.184;2022-08-19T04:01:06;9.37;;;8.33;;
15899;SDS011;8048;50.644;6.184;2022-08-19T04:03:36;9.23;;;8.40;;
15899;SDS011;8048;50.644;6.184;2022-08-19T04:06:19;8.40;;;7.60;;
15899;SDS011;8048;50.644;6.184;2022-08-19T04:08:47;10.17;;;9.10;;
15899;SDS011;8048;50.644;6.184;2022-08-19T04:11:16;8.63;;;7.80;;
15899;SDS011;8048;50.644;6.184;2022-08-19T04:13:45;9.60;;;8.57;;
15899;SDS011;8048;50.644;6.184;2022-08-19T04:16:11;8.53;;;7.77;;
15899;SDS011;8048;50.644;6.184;2022-08-19T04:18:37;8.77;;;7.90;;
15899;SDS011;8048;50.644;6.184;2022-08-19T04:21:04;10.30;;;9.30;;
15899;SDS011;8048;50.644;6.184;2022-08-19T04:25:59;9.60;;;8.70;;
15899;SDS011;8048;50.644;6.184;2022-08-19T04:28:24;9.60;;;8.60;;
15899;SDS011;8048;50.644;6.184;2022-08-19T04:30:51;8.93;;;8.00;;
15899;SDS011;8048;50.644;6.184;2022-08-19T04:33:19;11.53;;;10.40;;
15899;SDS011;8048;50.644;6.184;2022-08-19T04:35:47;11.27;;;9.83;;
15899;SDS011;8048;50.644;6.184;2022-08-19T04:38:16;10.93;;;9.87;;
15899;SDS011;8048;50.644;6.184;2022-08-19T04:40:45;10.33;;;9.23;;
15899;SDS011;8048;50.644;6.184;2022-08-19T04:43:30;10.43;;;9.50;;
15899;SDS011;8048;50.644;6.184;2022-08-19T04:45:57;10.53;;;9.53;;
15899;SDS011;8048;50.644;6.184;2022-08-19T04:48:23;10.40;;;9.37;;
15899;SDS011;8048;50.644;6.184;2022-08-19T04:50:52;11.83;;;10.17;;
15899;SDS011;8048;50.644;6.184;2022-08-19T04:53:23;10.73;;;9.73;;
15899;SDS011;8048;50.644;6.184;2022-08-19T04:55:50;13.20;;;10.87;;
15899;SDS011;8048;50.644;6.184;2022-08-19T04:58:16;13.90;;;12.43;;
15899;SDS011;8048;50.644;6.184;2022-08-19T05:00:42;16.73;;;14.13;;
15899;SDS011;8048;50.644;6.184;2022-08-19T05:03:08;14.37;;;12.90;;
15899;SDS011;8048;50.644;6.184;2022-08-19T05:05:37;18.03;;;14.17;;
15899;SDS011;8048;50.644;6.184;2022-08-19T05:08:05;20.20;;;15.40;;
15899;SDS011;8048;50.644;6.184;2022-08-19T05:10:32;30.10;;;20.80;;
15899;SDS011;8048;50.644;6.184;2022-08-19T05:13:00;25.03;;;16.90;;
15899;SDS011;8048;50.644;6.184;2022-08-19T05:15:26;24.00;;;17.10;;
15899;SDS011;8048;50.644;6.184;2022-08-19T05:17:51;19.47;;;16.77;;
15899;SDS011;8048;50.644;6.184;2022-08-19T05:20:37;21.67;;;16.80;;
15899;SDS011;8048;50.644;6.184;2022-08-19T05:23:22;39.60;;;23.20;;
15899;SDS011;8048;50.644;6.184;2022-08-19T05:25:47;28.90;;;22.63;;
15899;SDS011;8048;50.644;6.184;2022-08-19T05:28:13;36.80;;;23.93;;
15899;SDS011;8048;50.644;6.184;2022-08-19T05:30:39;30.43;;;20.53;;
15899;SDS011;8048;50.644;6.184;2022-08-19T05:33:06;26.17;;;21.80;;
15899;SDS011;8048;50.644;6.184;2022-08-19T05:35:34;42.73;;;28.07;;
15899;SDS011;8048;50.644;6.184;2022-08-19T05:38:02;49.80;;;30.37;;
15899;SDS011;8048;50.644;6.184;2022-08-19T05:40:28;48.63;;;29.87;;
15899;SDS011;8048;50.644;6.184;2022-08-19T05:42:54;45.77;;;28.27;;
15899;SDS011;8048;50.644;6.184;2022-08-19T05:45:19;46.60;;;28.80;;
15899;SDS011;8048;50.644;6.184;2022-08-19T05:47:46;44.10;;;25.90;;
15899;SDS011;8048;50.644;6.184;2022-08-19T05:50:12;38.73;;;26.07;;
15899;SDS011;8048;50.644;6.184;2022-08-19T05:52:38;47.60;;;29.10;;
15899;SDS011;8048;50.644;6.184;2022-08-19T05:55:04;50.10;;;28.57;;
15899;SDS011;8048;50.644;6.184;2022-08-19T05:57:30;39.97;;;26.63;;
15899;SDS011;8048;50.644;6.184;2022-08-19T05:59:57;44.80;;;26.80;;
15899;SDS011;8048;50.644;6.184;2022-08-19T06:02:28;49.63;;;26.90;;
15899;SDS011;8048;50.644;6.184;2022-08-19T06:04:55;43.80;;;26.70;;
15899;SDS011;8048;50.644;6.184;2022-08-19T06:07:21;40.87;;;26.47;;
15899;SDS011;8048;50.644;6.184;2022-08-19T06:09:46;46.50;;;27.40;;
15899;SDS011;8048;50.644;6.184;2022-08-19T06:12:12;46.83;;;26.30;;
15899;SDS011;8048;50.644;6.184;2022-08-19T06:14:37;43.77;;;24.97;;
15899;SDS011;8048;50.644;6.184;2022-08-19T06:17:03;43.40;;;28.43;;
15899;SDS011;8048;50.644;6.184;2022-08-19T06:19:29;40.80;;;25.50;;
15899;SDS011;8048;50.644;6.184;2022-08-19T06:21:56;41.50;;;26.90;;
15899;SDS011;8048;50.644;6.184;2022-08-19T06:24:24;39.80;;;26.90;;
15899;SDS011;8048;50.644;6.184;2022-08-19T06:26:52;38.70;;;23.97;;
15899;SDS011;8048;50.644;6.184;2022-08-19T06:29:20;36.93;;;23.70;;
15899;SDS011;8048;50.644;6.184;2022-08-19T06:31:49;41.17;;;25.03;;
15899;SDS011;8048;50.644;6.184;2022-08-19T06:34:17;50.00;;;27.03;;
15899;SDS011;8048;50.644;6.184;2022-08-19T06:36:45;42.57;;;27.90;;
15899;SDS011;8048;50.644;6.184;2022-08-19T06:39:16;44.77;;;26.90;;
15899;SDS011;8048;50.644;6.184;2022-08-19T06:41:46;45.07;;;24.20;;
15899;SDS011;8048;50.644;6.184;2022-08-19T06:44:13;43.97;;;24.47;;
15899;SDS011;8048;50.644;6.184;2022-08-19T06:46:40;42.10;;;25.90;;
15899;SDS011;8048;50.644;6.184;2022-08-19T06:49:07;40.90;;;25.13;;
15899;SDS011;8048;50.644;6.184;2022-08-19T06:51:35;45.93;;;25.87;;
15899;SDS011;8048;50.644;6.184;2022-08-19T06:54:00;46.40;;;24.90;;
15899;SDS011;8048;50.644;6.184;2022-08-19T06:56:28;37.20;;;21.83;;
15899;SDS011;8048;50.644;6.184;2022-08-19T06:59:05;37.30;;;23.47;;
15899;SDS011;8048;50.644;6.184;2022-08-19T07:01:36;44.40;;;24.17;;
15899;SDS011;8048;50.644;6.184;2022-08-19T07:04:05;37.00;;;22.77;;
15899;SDS011;8048;50.644;6.184;2022-08-19T07:06:32;38.30;;;23.50;;
15899;SDS011;8048;50.644;6.184;2022-08-19T07:08:57;36.63;;;21.97;;
15899;SDS011;8048;50.644;6.184;2022-08-19T07:11:24;30.50;;;18.10;;
15899;SDS011;8048;50.644;6.184;2022-08-19T07:13:50;30.50;;;22.37;;
15899;SDS011;8048;50.644;6.184;2022-08-19T07:16:17;29.00;;;19.40;;
15899;SDS011;8048;50.644;6.184;2022-08-19T07:18:47;32.37;;;21.40;;
15899;SDS011;8048;50.644;6.184;2022-08-19T07:21:17;30.97;;;19.60;;
15899;SDS011;8048;50.644;6.184;2022-08-19T07:23:47;27.70;;;20.03;;
15899;SDS011;8048;50.644;6.184;2022-08-19T07:26:15;32.20;;;19.90;;
15899;SDS011;8048;50.644;6.184;2022-08-19T07:28:44;31.37;;;21.17;;
15899;SDS011;8048;50.644;6.184;2022-08-19T07:31:11;28.03;;;19.30;;
15899;SDS011;8048;50.644;6.184;2022-08-19T07:33:39;31.23;;;22.27;;
15899;SDS011;8048;50.644;6.184;2022-08-19T07:36:08;35.73;;;23.47;;
15899;SDS011;8048;50.644;6.184;2022-08-19T07:38:36;28.80;;;20.20;;
15899;SDS011;8048;50.644;6.184;2022-08-19T07:41:04;31.40;;;20.70;;
15899;SDS011;8048;50.644;6.184;2022-08-19T07:43:30;30.07;;;20.83;;
15899;SDS011;8048;50.644;6.184;2022-08-19T07:45:56;31.00;;;20.40;;
15899;SDS011;8048;50.644;6.184;2022-08-19T07:48:22;28.33;;;19.67;;
15899;SDS011;8048;50.644;6.184;2022-08-19T07:50:51;28.60;;;18.37;;
15899;SDS011;8048;50.644;6.184;2022-08-19T07:53:21;25.97;;;18.90;;
15899;SDS011;8048;50.644;6.184;2022-08-19T07:55:48;24.90;;;17.30;;
15899;SDS011;8048;50.644;6.184;2022-08-19T07:58:15;26.80;;;18.77;;
15899;SDS011;8048;50.644;6.184;2022-08-19T08:00:43;26.90;;;17.80;;
15899;SDS011;8048;50.644;6.184;2022-08-19T08:03:11;20.10;;;15.00;;
15899;SDS011;8048;50.644;6.184;2022-08-19T08:05:37;27.77;;;18.00;;
15899;SDS011;8048;50.644;6.184;2022-08-19T08:08:21;23.30;;;16.50;;
15899;SDS011;8048;50.644;6.184;2022-08-19T08:11:07;29.10;;;19.80;;
15899;SDS011;8048;50.644;6.184;2022-08-19T08:13:33;29.60;;;21.13;;
15899;SDS011;8048;50.644;6.184;2022-08-19T08:16:00;29.00;;;18.77;;
15899;SDS011;8048;50.644;6.184;2022-08-19T08:18:27;34.00;;;20.63;;
15899;SDS011;8048;50.644;6.184;2022-08-19T08:20:54;20.90;;;16.80;;
15899;SDS011;8048;50.644;6.184;2022-08-19T08:23:20;25.10;;;17.93;;
15899;SDS011;8048;50.644;6.184;2022-08-19T08:25:50;24.70;;;18.63;;
15899;SDS011;8048;50.644;6.184;2022-08-19T08:28:18;24.00;;;17.30;;
15899;SDS011;8048;50.644;6.184;2022-08-19T08:30:44;30.00;;;19.80;;
15899;SDS011;8048;50.644;6.184;2022-08-19T08:33:12;31.70;;;20.10;;
15899;SDS011;8048;50.644;6.184;2022-08-19T08:35:39;29.80;;;19.23;;
15899;SDS011;8048;50.644;6.184;2022-08-19T08:38:07;28.93;;;17.63;;
15899;SDS011;8048;50.644;6.184;2022-08-19T08:40:54;22.70;;;16.73;;
15899;SDS011;8048;50.644;6.184;2022-08-19T08:46:08;37.03;;;24.93;;
15899;SDS011;8048;50.644;6.184;2022-08-19T08:48:47;29.93;;;22.93;;
15899;SDS011;8048;50.644;6.184;2022-08-19T08:51:15;32.37;;;22.23;;
15899;SDS011;8048;50.644;6.184;2022-08-19T08:53:48;30.73;;;23.27;;
15899;SDS011;8048;50.644;6.184;2022-08-19T08:56:15;27.60;;;21.97;;
15899;SDS011;8048;50.644;6.184;2022-08-19T08:58:49;37.53;;;23.53;;
15899;SDS011;8048;50.644;6.184;2022-08-19T09:01:23;32.83;;;20.63;;
15899;SDS011;8048;50.644;6.184;2022-08-19T09:03:49;31.53;;;21.90;;
15899;SDS011;8048;50.644;6.184;2022-08-19T09:06:27;35.30;;;23.17;;
15899;SDS011;8048;50.644;6.184;2022-08-19T09:11:44;39.80;;;23.97;;
15899;SDS011;8048;50.644;6.184;2022-08-19T09:17:10;33.10;;;23.03;;
15899;SDS011;8048;50.644;6.184;2022-08-19T09:19:53;33.77;;;20.97;;
15899;SDS011;8048;50.644;6.184;2022-08-19T09:22:21;28.20;;;21.20;;
15899;SDS011;8048;50.644;6.184;2022-08-19T09:24:50;26.03;;;18.87;;
15899;SDS011;8048;50.644;6.184;2022-08-19T09:27:17;28.37;;;20.47;;
15899;SDS011;8048;50.644;6.184;2022-08-19T09:29:44;30.13;;;21.67;;
15899;SDS011;8048;50.644;6.184;2022-08-19T09:32:09;27.77;;;20.50;;
15899;SDS011;8048;50.644;6.184;2022-08-19T09:34:35;24.70;;;18.50;;
15899;SDS011;8048;50.644;6.184;2022-08-19T09:37:00;22.80;;;18.43;;
15899;SDS011;8048;50.644;6.184;2022-08-19T09:39:27;24.80;;;18.30;;
15899;SDS011;8048;50.644;6.184;2022-08-19T09:41:53;22.70;;;17.67;;
15899;SDS011;8048;50.644;6.184;2022-08-19T09:44:19;26.70;;;21.07;;
15899;SDS011;8048;50.644;6.184;2022-08-19T09:46:45;28.23;;;19.60;;
15899;SDS011;8048;50.644;6.184;2022-08-19T09:49:20;26.50;;;19.97;;
15899;SDS011;8048;50.644;6.184;2022-08-19T09:51:49;26.10;;;18.03;;
15899;SDS011;8048;50.644;6.184;2022-08-19T09:54:15;23.27;;;17.97;;
15899;SDS011;8048;50.644;6.184;2022-08-19T09:56:41;25.30;;;19.50;;
15899;SDS011;8048;50.644;6.184;2022-08-19T09:59:07;24.43;;;18.10;;
15899;SDS011;8048;50.644;6.184;2022-08-19T10:01:34;26.30;;;18.63;;
15899;SDS011;8048;50.644;6.184;2022-08-19T10:04:00;28.17;;;15.67;;
15899;SDS011;8048;50.644;6.184;2022-08-19T10:06:27;24.70;;;17.77;;
15899;SDS011;8048;50.644;6.184;2022-08-19T10:08:58;23.87;;;18.17;;
15899;SDS011;8048;50.644;6.184;2022-08-19T10:11:24;25.80;;;17.33;;
15899;SDS011;8048;50.644;6.184;2022-08-19T10:13:51;18.97;;;14.57;;
15899;SDS011;8048;50.644;6.184;2022-08-19T10:16:18;20.97;;;16.30;;
15899;SDS011;8048;50.644;6.184;2022-08-19T10:18:47;17.77;;;14.10;;
15899;SDS011;8048;50.644;6.184;2022-08-19T10:21:15;19.93;;;15.77;;
15899;SDS011;8048;50.644;6.184;2022-08-19T10:23:46;21.60;;;14.87;;
15899;SDS011;8048;50.644;6.184;2022-08-19T10:26:14;21.40;;;16.33;;
15899;SDS011;8048;50.644;6.184;2022-08-19T10:28:43;20.27;;;16.07;;
15899;SDS011;8048;50.644;6.184;2022-08-19T10:31:16;18.20;;;14.40;;
15899;SDS011;8048;50.644;6.184;2022-08-19T10:33:44;18.87;;;14.30;;
15899;SDS011;8048;50.644;6.184;2022-08-19T10:36:13;17.37;;;12.93;;
15899;SDS011;8048;50.644;6.184;2022-08-19T10:38:42;16.30;;;12.93;;
15899;SDS011;8048;50.644;6.184;2022-08-19T10:43:44;18.33;;;14.40;;
15899;SDS011;8048;50.644;6.184;2022-08-19T10:46:10;17.17;;;14.40;;
15899;SDS011;8048;50.644;6.184;2022-08-19T10:48:37;15.10;;;13.47;;
15899;SDS011;8048;50.644;6.184;2022-08-19T10:51:04;15.13;;;13.23;;
15899;SDS011;8048;50.644;6.184;2022-08-19T10:53:48;13.90;;;11.73;;
15899;SDS011;8048;50.644;6.184;2022-08-19T10:56:14;14.20;;;11.67;;
15899;SDS011;8048;50.644;6.184;2022-08-19T10:58:58;15.33;;;12.97;;
15899;SDS011;8048;50.644;6.184;2022-08-19T11:01:25;12.70;;;11.50;;
15899;SDS011;8048;50.644;6.184;2022-08-19T11:03:51;13.60;;;11.40;;
15899;SDS011;8048;50.644;6.184;2022-08-19T11:06:17;14.93;;;11.03;;
15899;SDS011;8048;50.644;6.184;2022-08-19T11:08:43;13.93;;;12.57;;
15899;SDS011;8048;50.644;6.184;2022-08-19T11:11:09;14.10;;;12.37;;
15899;SDS011;8048;50.644;6.184;2022-08-19T11:13:36;12.60;;;10.13;;
15899;SDS011;8048;50.644;6.184;2022-08-19T11:16:15;15.93;;;12.53;;
15899;SDS011;8048;50.644;6.184;2022-08-19T11:18:47;11.20;;;9.97;;
15899;SDS011;8048;50.644;6.184;2022-08-19T11:23:45;11.50;;;10.00;;
15899;SDS011;8048;50.644;6.184;2022-08-19T11:26:13;12.17;;;10.97;;
15899;SDS011;8048;50.644;6.184;2022-08-19T11:28:39;9.90;;;9.00;;
15899;SDS011;8048;50.644;6.184;2022-08-19T11:31:09;12.90;;;11.60;;
15899;SDS011;8048;50.644;6.184;2022-08-19T11:33:40;10.90;;;9.80;;
15899;SDS011;8048;50.644;6.184;2022-08-19T11:36:07;12.83;;;10.07;;
15899;SDS011;8048;50.644;6.184;2022-08-19T11:38:33;12.50;;;11.23;;
15899;SDS011;8048;50.644;6.184;2022-08-19T11:41:01;11.10;;;9.43;;
15899;SDS011;8048;50.644;6.184;2022-08-19T11:43:29;11.60;;;10.20;;
15899;SDS011;8048;50.644;6.184;2022-08-19T11:45:55;10.33;;;9.27;;
15899;SDS011;8048;50.644;6.184;2022-08-19T11:48:20;10.30;;;8.67;;
15899;SDS011;8048;50.644;6.184;2022-08-19T11:50:47;10.70;;;8.60;;
15899;SDS011;8048;50.644;6.184;2022-08-19T11:53:13;10.67;;;9.10;;
15899;SDS011;8048;50.644;6.184;2022-08-19T11:55:39;10.00;;;9.00;;
15899;SDS011;8048;50.644;6.184;2022-08-19T11:58:05;13.03;;;10.87;;
15899;SDS011;8048;50.644;6.184;2022-08-19T12:00:33;9.80;;;8.80;;
15899;SDS011;8048;50.644;6.184;2022-08-19T12:03:00;12.47;;;10.70;;
15899;SDS011;8048;50.644;6.184;2022-08-19T12:05:26;12.83;;;10.87;;
15899;SDS011;8048;50.644;6.184;2022-08-19T12:07:52;9.87;;;8.97;;
15899;SDS011;8048;50.644;6.184;2022-08-19T12:10:19;13.50;;;11.37;;
15899;SDS011;8048;50.644;6.184;2022-08-19T12:12:45;13.13;;;9.33;;
15899;SDS011;8048;50.644;6.184;2022-08-19T12:15:10;10.33;;;9.43;;
15899;SDS011;8048;50.644;6.184;2022-08-19T12:17:37;13.30;;;10.40;;
15899;SDS011;8048;50.644;6.184;2022-08-19T12:20:03;9.70;;;8.70;;
15899;SDS011;8048;50.644;6.184;2022-08-19T12:22:30;10.37;;;9.37;;
15899;SDS011;8048;50.644;6.184;2022-08-19T12:24:56;10.50;;;9.50;;
15899;SDS011;8048;50.644;6.184;2022-08-19T12:27:22;11.60;;;9.50;;
15899;SDS011;8048;50.644;6.184;2022-08-19T12:29:47;9.93;;;7.90;;
15899;SDS011;8048;50.644;6.184;2022-08-19T12:32:13;8.20;;;7.40;;
15899;SDS011;8048;50.644;6.184;2022-08-19T12:34:40;9.70;;;8.80;;
15899;SDS011;8048;50.644;6.184;2022-08-19T12:37:06;6.57;;;6.00;;
15899;SDS011;8048;50.644;6.184;2022-08-19T12:39:36;7.40;;;6.70;;
15899;SDS011;8048;50.644;6.184;2022-08-19T12:42:03;7.43;;;6.23;;
15899;SDS011;8048;50.644;6.184;2022-08-19T12:44:29;7.33;;;6.60;;
15899;SDS011;8048;50.644;6.184;2022-08-19T12:46:56;9.13;;;7.97;;
15899;SDS011;8048;50.644;6.184;2022-08-19T12:49:23;6.63;;;6.03;;
15899;SDS011;8048;50.644;6.184;2022-08-19T12:51:49;7.07;;;6.47;;
15899;SDS011;8048;50.644;6.184;2022-08-19T12:54:15;6.43;;;6.03;;
15899;SDS011;8048;50.644;6.184;2022-08-19T12:56:41;5.43;;;4.80;;
15899;SDS011;8048;50.644;6.184;2022-08-19T12:59:08;6.57;;;6.00;;
15899;SDS011;8048;50.644;6.184;2022-08-19T13:01:36;5.13;;;4.73;;
15899;SDS011;8048;50.644;6.184;2022-08-19T13:04:01;5.63;;;5.03;;
15899;SDS011;8048;50.644;6.184;2022-08-19T13:06:27;6.37;;;5.80;;
15899;SDS011;8048;50.644;6.184;2022-08-19T13:08:53;6.00;;;5.60;;
15899;SDS011;8048;50.644;6.184;2022-08-19T13:11:20;6.33;;;5.83;;
15899;SDS011;8048;50.644;6.184;2022-08-19T13:13:49;5.50;;;5.00;;
15899;SDS011;8048;50.644;6.184;2022-08-19T13:16:16;4.97;;;4.57;;
15899;SDS011;8048;50.644;6.184;2022-08-19T13:18:42;4.37;;;4.03;;
15899;SDS011;8048;50.644;6.184;2022-08-19T13:21:11;4.27;;;4.03;;
15899;SDS011;8048;50.644;6.184;2022-08-19T13:23:38;5.10;;;4.70;;
15899;SDS011;8048;50.644;6.184;2022-08-19T13:26:05;4.57;;;4.17;;
15899;SDS011;8048;50.644;6.184;2022-08-19T13:28:33;3.83;;;3.63;;
15899;SDS011;8048;50.644;6.184;2022-08-19T13:31:17;6.10;;;2.80;;
15899;SDS011;8048;50.644;6.184;2022-08-19T13:34:03;5.83;;;3.20;;
15899;SDS011;8048;50.644;6.184;2022-08-19T13:36:30;3.50;;;3.20;;
15899;SDS011;8048;50.644;6.184;2022-08-19T13:38:57;3.97;;;3.70;;
15899;SDS011;8048;50.644;6.184;2022-08-19T13:41:23;2.50;;;2.40;;
15899;SDS011;8048;50.644;6.184;2022-08-19T13:43:49;3.27;;;3.07;;
15899;SDS011;8048;50.644;6.184;2022-08-19T13:46:15;3.40;;;3.20;;
15899;SDS011;8048;50.644;6.184;2022-08-19T13:48:41;3.83;;;3.60;;
15899;SDS011;8048;50.644;6.184;2022-08-19T13:51:07;3.00;;;2.90;;
15899;SDS011;8048;50.644;6.184;2022-08-19T13:53:38;3.20;;;2.90;;
15899;SDS011;8048;50.644;6.184;2022-08-19T13:56:05;3.43;;;3.13;;
15899;SDS011;8048;50.644;6.184;2022-08-19T13:58:31;4.17;;;3.77;;
15899;SDS011;8048;50.644;6.184;2022-08-19T14:00:57;3.40;;;3.20;;
15899;SDS011;8048;50.644;6.184;2022-08-19T14:03:24;4.60;;;4.20;;
15899;SDS011;8048;50.644;6.184;2022-08-19T14:05:50;4.37;;;4.07;;
15899;SDS011;8048;50.644;6.184;2022-08-19T14:08:16;3.93;;;3.63;;
15899;SDS011;8048;50.644;6.184;2022-08-19T14:10:43;3.07;;;2.87;;
15899;SDS011;8048;50.644;6.184;2022-08-19T14:13:12;3.73;;;3.50;;
15899;SDS011;8048;50.644;6.184;2022-08-19T14:15:39;3.73;;;3.53;;
15899;SDS011;8048;50.644;6.184;2022-08-19T14:18:05;4.00;;;3.80;;
15899;SDS011;8048;50.644;6.184;2022-08-19T14:20:33;3.43;;;3.23;;
15899;SDS011;8048;50.644;6.184;2022-08-19T14:22:59;3.27;;;3.07;;
15899;SDS011;8048;50.644;6.184;2022-08-19T14:25:26;3.80;;;3.50;;
15899;SDS011;8048;50.644;6.184;2022-08-19T14:27:53;3.30;;;3.10;;
15899;SDS011;8048;50.644;6.184;2022-08-19T14:30:24;3.77;;;3.40;;
15899;SDS011;8048;50.644;6.184;2022-08-19T14:32:52;4.10;;;3.80;;
15899;SDS011;8048;50.644;6.184;2022-08-19T14:35:19;3.67;;;3.47;;
15899;SDS011;8048;50.644;6.184;2022-08-19T14:37:46;4.00;;;3.70;;
15899;SDS011;8048;50.644;6.184;2022-08-19T14:40:16;3.27;;;3.07;;
15899;SDS011;8048;50.644;6.184;2022-08-19T14:42:45;3.10;;;2.80;;
15899;SDS011;8048;50.644;6.184;2022-08-19T14:45:12;2.53;;;2.33;;
15899;SDS011;8048;50.644;6.184;2022-08-19T14:47:38;3.23;;;3.03;;
15899;SDS011;8048;50.644;6.184;2022-08-19T14:50:05;3.20;;;3.10;;
15899;SDS011;8048;50.644;6.184;2022-08-19T14:52:32;3.63;;;2.90;;
15899;SDS011;8048;50.644;6.184;2022-08-19T14:54:58;3.70;;;3.50;;
15899;SDS011;8048;50.644;6.184;2022-08-19T14:57:23;3.40;;;3.07;;
15899;SDS011;8048;50.644;6.184;2022-08-19T14:59:49;3.17;;;2.97;;
15899;SDS011;8048;50.644;6.184;2022-08-19T15:02:14;2.83;;;2.63;;
15899;SDS011;8048;50.644;6.184;2022-08-19T15:04:41;2.57;;;2.47;;
15899;SDS011;8048;50.644;6.184;2022-08-19T15:07:06;3.20;;;3.00;;
15899;SDS011;8048;50.644;6.184;2022-08-19T15:09:32;3.50;;;2.77;;
15899;SDS011;8048;50.644;6.184;2022-08-19T15:11:59;5.03;;;3.17;;